Time;durP1;ratioP1;P1;durP2;ratioP2;P2;SDS_P1;SDS_P2;PMS_P1;PMS_P2;Temp;Humidity;BMP_temperature;BMP_pressure;BME280_temperature;BME280_humidity;BME280_pressure;Samples;Min_cycle;Max_cycle;Signal;HPM_P1;HPM_P2
2023/03/19 00:00:42;;;;;;;8.57;3.75;;;;;;;;;;6268468;22;20024;-85
2023/03/19 00:03:15;;;;;;;11.43;4.30;;;;;;;;;;6266823;22;20024;-84
2023/03/19 00:05:54;;;;;;;8.93;3.30;;;;;;;;;;6264574;22;20016;-86
2023/03/19 00:08:28;;;;;;;5.50;2.80;;;;;;;;;;6268686;22;20028;-83
2023/03/19 00:11:11;;;;;;;9.73;3.45;;;;;;;;;;6268473;22;20046;-84
2023/03/19 00:13:45;;;;;;;6.00;3.00;;;;;;;;;;6268197;22;20032;-85
2023/03/19 00:16:20;;;;;;;9.57;3.60;;;;;;;;;;6267181;22;20114;-82
2023/03/19 00:18:53;;;;;;;6.45;3.03;;;;;;;;;;6269158;22;20024;-84
2023/03/19 00:21:29;;;;;;;8.45;3.53;;;;;;;;;;6242274;22;20024;-84
2023/03/19 00:24:03;;;;;;;6.68;3.17;;;;;;;;;;6273142;22;20032;-83
2023/03/19 00:26:36;;;;;;;6.53;2.80;;;;;;;;;;6278552;22;20139;-84
2023/03/19 00:29:10;;;;;;;7.15;3.53;;;;;;;;;;6278428;22;20031;-82
2023/03/19 00:31:44;;;;;;;6.85;3.85;;;;;;;;;;6268816;22;20791;-83
2023/03/19 00:34:18;;;;;;;7.35;3.30;;;;;;;;;;6266562;22;20035;-83
2023/03/19 00:36:53;;;;;;;6.82;3.03;;;;;;;;;;6267785;22;20024;-82
2023/03/19 00:39:27;;;;;;;7.53;3.08;;;;;;;;;;6242695;22;20020;-83
2023/03/19 00:42:02;;;;;;;6.95;3.40;;;;;;;;;;6268632;22;20024;-83
2023/03/19 00:44:35;;;;;;;9.32;3.72;;;;;;;;;;6267764;22;20413;-83
2023/03/19 00:47:08;;;;;;;5.97;3.17;;;;;;;;;;6242088;22;20024;-85
2023/03/19 00:49:41;;;;;;;6.95;3.38;;;;;;;;;;6268142;22;20024;-84
2023/03/19 00:52:15;;;;;;;8.48;3.60;;;;;;;;;;6268894;22;20924;-83
2023/03/19 00:54:50;;;;;;;7.20;3.42;;;;;;;;;;6266878;22;20907;-81
2023/03/19 00:57:24;;;;;;;7.70;2.85;;;;;;;;;;6267942;22;20024;-84
2023/03/19 00:59:58;;;;;;;6.20;2.92;;;;;;;;;;6269696;22;20086;-83
2023/03/19 01:02:31;;;;;;;6.30;3.13;;;;;;;;;;6270268;22;20473;-85
2023/03/19 01:05:06;;;;;;;7.50;3.00;;;;;;;;;;6263740;22;20039;-84
2023/03/19 01:07:38;;;;;;;5.63;2.88;;;;;;;;;;6240155;22;20078;-86
2023/03/19 01:10:13;;;;;;;5.35;2.95;;;;;;;;;;6265592;22;20027;-83
2023/03/19 01:12:47;;;;;;;7.55;2.97;;;;;;;;;;6267946;22;20086;-89
2023/03/19 01:15:21;;;;;;;6.68;3.25;;;;;;;;;;6267756;22;20024;-82
2023/03/19 01:17:55;;;;;;;8.18;2.95;;;;;;;;;;6266971;22;20031;-84
2023/03/19 01:20:28;;;;;;;5.80;3.25;;;;;;;;;;6264922;22;20424;-83
2023/03/19 01:23:03;;;;;;;7.53;3.65;;;;;;;;;;6264686;22;20072;-83
2023/03/19 01:25:36;;;;;;;6.88;3.33;;;;;;;;;;6268200;22;20342;-82
2023/03/19 01:28:14;;;;;;;6.75;3.28;;;;;;;;;;6266370;22;20833;-85
2023/03/19 01:30:47;;;;;;;7.22;3.10;;;;;;;;;;6266456;22;20020;-83
2023/03/19 01:33:22;;;;;;;9.23;3.35;;;;;;;;;;6266308;22;20028;-84
2023/03/19 01:35:56;;;;;;;6.35;2.97;;;;;;;;;;6268511;22;20031;-84
2023/03/19 01:38:31;;;;;;;9.88;3.70;;;;;;;;;;6242356;22;20043;-84
2023/03/19 01:41:06;;;;;;;6.75;3.75;;;;;;;;;;6269172;22;20020;-87
2023/03/19 01:43:38;;;;;;;8.48;3.38;;;;;;;;;;6269153;22;20020;-83
2023/03/19 01:46:23;;;;;;;7.25;3.40;;;;;;;;;;6268779;22;20453;-84
2023/03/19 01:49:01;;;;;;;7.47;3.40;;;;;;;;;;6269483;22;20032;-83
2023/03/19 01:51:37;;;;;;;7.85;3.50;;;;;;;;;;6243875;22;20023;-84
2023/03/19 01:54:12;;;;;;;7.88;3.50;;;;;;;;;;6268416;22;20474;-86
2023/03/19 01:56:47;;;;;;;7.13;3.65;;;;;;;;;;6269375;22;20075;-82
2023/03/19 01:59:25;;;;;;;8.95;3.70;;;;;;;;;;6269284;22;20040;-84
2023/03/19 02:02:28;;;;;;;6.70;3.42;;;;;;;;;;6269276;22;20082;-84
2023/03/19 02:05:02;;;;;;;8.05;3.53;;;;;;;;;;6247343;22;20498;-83
2023/03/19 02:07:34;;;;;;;8.63;3.80;;;;;;;;;;6270587;22;20024;-84
2023/03/19 02:10:10;;;;;;;9.85;3.97;;;;;;;;;;6269198;22;20910;-82
2023/03/19 02:12:43;;;;;;;6.65;3.55;;;;;;;;;;6242475;22;20950;-84
2023/03/19 02:15:17;;;;;;;9.80;4.50;;;;;;;;;;6270401;22;20076;-84
2023/03/19 02:17:52;;;;;;;8.20;4.45;;;;;;;;;;6270963;22;20023;-84
2023/03/19 02:20:28;;;;;;;12.02;4.15;;;;;;;;;;6271310;22;21238;-84
2023/03/19 02:23:15;;;;;;;7.60;4.25;;;;;;;;;;6269796;22;20024;-84
2023/03/19 02:25:49;;;;;;;8.90;4.07;;;;;;;;;;6244360;22;20107;-83
2023/03/19 02:28:23;;;;;;;7.13;4.32;;;;;;;;;;6245524;22;20054;-85
2023/03/19 02:30:57;;;;;;;8.13;4.30;;;;;;;;;;6268907;22;20374;-81
2023/03/19 02:33:32;;;;;;;6.78;3.72;;;;;;;;;;6270467;22;20086;-83
2023/03/19 02:36:05;;;;;;;7.88;3.88;;;;;;;;;;6269413;22;20032;-84
2023/03/19 02:38:41;;;;;;;8.13;3.90;;;;;;;;;;6244228;22;20059;-86
2023/03/19 02:41:16;;;;;;;8.77;4.22;;;;;;;;;;6270461;22;20027;-85
2023/03/19 02:43:50;;;;;;;8.55;4.20;;;;;;;;;;6242087;22;20028;-83
2023/03/19 02:46:24;;;;;;;8.50;4.30;;;;;;;;;;6267969;22;20016;-83
2023/03/19 02:48:58;;;;;;;9.93;4.70;;;;;;;;;;6268267;22;20471;-83
2023/03/19 02:51:33;;;;;;;8.60;4.88;;;;;;;;;;6265678;22;20063;-84
2023/03/19 02:54:08;;;;;;;9.55;4.30;;;;;;;;;;6265136;22;20100;-83
2023/03/19 02:56:41;;;;;;;9.50;4.55;;;;;;;;;;6270024;22;20485;-83
2023/03/19 02:59:17;;;;;;;9.15;4.75;;;;;;;;;;6242276;22;20028;-84
2023/03/19 03:01:52;;;;;;;10.45;5.75;;;;;;;;;;6241713;22;20031;-84
2023/03/19 03:04:37;;;;;;;8.85;4.57;;;;;;;;;;6251923;22;20109;-84
2023/03/19 03:07:12;;;;;;;10.52;5.38;;;;;;;;;;6266489;22;20024;-85
2023/03/19 03:09:46;;;;;;;10.15;5.50;;;;;;;;;;6268062;22;20023;-84
2023/03/19 03:12:21;;;;;;;12.68;5.20;;;;;;;;;;6263586;22;20028;-83
2023/03/19 03:14:54;;;;;;;10.45;5.45;;;;;;;;;;6239402;22;20020;-83
2023/03/19 03:17:29;;;;;;;13.15;5.57;;;;;;;;;;6268572;22;20024;-83
2023/03/19 03:20:03;;;;;;;12.38;5.90;;;;;;;;;;6267430;22;20028;-83
2023/03/19 03:22:36;;;;;;;12.57;6.18;;;;;;;;;;6268982;22;20028;-83
2023/03/19 03:25:10;;;;;;;10.90;5.65;;;;;;;;;;6241548;22;20024;-82
2023/03/19 03:27:43;;;;;;;12.43;6.50;;;;;;;;;;6240715;22;20099;-82
2023/03/19 03:30:19;;;;;;;9.85;5.63;;;;;;;;;;6267935;22;20024;-83
2023/03/19 03:32:52;;;;;;;12.00;5.95;;;;;;;;;;6239716;22;20028;-83
2023/03/19 03:35:27;;;;;;;13.02;5.72;;;;;;;;;;6266089;22;20023;-83
2023/03/19 03:38:03;;;;;;;12.20;6.85;;;;;;;;;;6267453;22;20020;-85
2023/03/19 03:40:36;;;;;;;9.93;6.15;;;;;;;;;;6268224;22;20024;-83
2023/03/19 03:43:09;;;;;;;10.02;6.03;;;;;;;;;;6267851;22;20028;-84
2023/03/19 03:45:44;;;;;;;13.20;6.38;;;;;;;;;;6267913;22;20545;-84
2023/03/19 03:48:18;;;;;;;12.05;6.80;;;;;;;;;;6268376;22;20090;-84
2023/03/19 03:50:52;;;;;;;10.15;5.97;;;;;;;;;;6268326;22;20106;-86
2023/03/19 03:53:26;;;;;;;14.25;6.80;;;;;;;;;;6267559;22;20086;-84
2023/03/19 03:56:01;;;;;;;13.40;6.30;;;;;;;;;;6267478;22;20572;-83
2023/03/19 03:58:34;;;;;;;11.90;6.78;;;;;;;;;;6270140;22;20035;-84
2023/03/19 04:01:07;;;;;;;11.32;6.43;;;;;;;;;;6266779;22;20035;-83
2023/03/19 04:03:43;;;;;;;12.85;6.70;;;;;;;;;;6267263;22;20455;-85
2023/03/19 04:06:18;;;;;;;11.88;6.47;;;;;;;;;;6242912;22;20628;-83
2023/03/19 04:08:51;;;;;;;10.13;5.88;;;;;;;;;;6268248;22;20515;-83
2023/03/19 04:11:26;;;;;;;13.40;7.25;;;;;;;;;;6266589;22;20028;-83
2023/03/19 04:14:00;;;;;;;11.88;6.28;;;;;;;;;;6266893;22;20103;-84
2023/03/19 04:16:36;;;;;;;11.57;6.47;;;;;;;;;;6269651;22;20074;-83
2023/03/19 04:19:06;;;;;;;12.57;6.95;;;;;;;;;;6268222;22;20051;-85
2023/03/19 04:21:32;;;;;;;12.75;6.70;;;;;;;;;;6238939;22;20868;-85
2023/03/19 04:23:59;;;;;;;12.52;6.78;;;;;;;;;;6238701;22;20024;-84
2023/03/19 04:26:25;;;;;;;15.02;7.68;;;;;;;;;;6268241;22;20098;-85
2023/03/19 04:28:52;;;;;;;19.00;8.80;;;;;;;;;;6270490;22;20783;-83
2023/03/19 04:31:18;;;;;;;17.08;8.32;;;;;;;;;;6269052;22;20091;-82
2023/03/19 04:33:45;;;;;;;17.27;7.50;;;;;;;;;;6242255;22;20028;-81
2023/03/19 04:36:11;;;;;;;16.25;8.77;;;;;;;;;;6268732;22;20031;-85
2023/03/19 04:38:37;;;;;;;15.82;7.43;;;;;;;;;;6270744;22;20621;-86
2023/03/19 04:41:04;;;;;;;15.15;7.22;;;;;;;;;;6269480;22;20024;-84
2023/03/19 04:43:31;;;;;;;13.38;7.18;;;;;;;;;;6267987;22;20024;-86
2023/03/19 04:45:58;;;;;;;13.65;7.45;;;;;;;;;;6265344;22;20252;-81
2023/03/19 04:48:25;;;;;;;16.90;7.50;;;;;;;;;;6267710;22;20447;-84
2023/03/19 04:50:52;;;;;;;15.95;8.07;;;;;;;;;;6269551;22;20107;-85
2023/03/19 04:53:19;;;;;;;13.63;8.20;;;;;;;;;;6264738;22;20373;-85
2023/03/19 04:55:46;;;;;;;14.13;7.65;;;;;;;;;;6267150;22;20051;-84
2023/03/19 04:58:12;;;;;;;14.05;7.78;;;;;;;;;;6267672;22;20035;-82
2023/03/19 05:00:39;;;;;;;16.75;8.40;;;;;;;;;;6269408;22;20493;-83
2023/03/19 05:03:06;;;;;;;17.25;9.63;;;;;;;;;;6267462;22;20035;-84
2023/03/19 05:05:32;;;;;;;17.63;9.43;;;;;;;;;;6267298;22;20582;-83
2023/03/19 05:07:58;;;;;;;15.02;8.52;;;;;;;;;;6268434;22;20075;-84
2023/03/19 05:10:25;;;;;;;15.25;7.78;;;;;;;;;;6268795;22;20021;-81
2023/03/19 05:12:51;;;;;;;13.18;6.72;;;;;;;;;;6266962;22;20552;-86
2023/03/19 05:15:18;;;;;;;11.85;6.85;;;;;;;;;;6266962;22;20028;-83
2023/03/19 05:17:44;;;;;;;13.63;7.18;;;;;;;;;;6268505;22;20020;-82
2023/03/19 05:20:11;;;;;;;15.18;7.65;;;;;;;;;;6268530;22;20032;-84
2023/03/19 05:22:38;;;;;;;17.25;7.75;;;;;;;;;;6275748;22;20024;-86
2023/03/19 05:25:05;;;;;;;12.30;7.38;;;;;;;;;;6276812;22;20016;-83
2023/03/19 05:27:32;;;;;;;13.52;7.47;;;;;;;;;;6274790;22;20039;-84
2023/03/19 05:30:00;;;;;;;16.00;7.95;;;;;;;;;;6268271;22;20873;-83
2023/03/19 05:32:26;;;;;;;17.67;8.50;;;;;;;;;;6267497;22;20110;-86
2023/03/19 05:34:53;;;;;;;21.85;9.25;;;;;;;;;;6266198;22;20024;-85
2023/03/19 05:37:20;;;;;;;22.42;9.68;;;;;;;;;;6269114;22;20028;-84
2023/03/19 05:39:47;;;;;;;21.73;10.75;;;;;;;;;;6266464;22;20028;-84
2023/03/19 05:42:13;;;;;;;15.90;9.48;;;;;;;;;;6266173;22;20103;-86
2023/03/19 05:44:40;;;;;;;19.67;9.85;;;;;;;;;;6265237;22;20027;-83
2023/03/19 05:47:07;;;;;;;21.35;10.07;;;;;;;;;;6266606;22;20028;-82
2023/03/19 05:49:34;;;;;;;21.25;9.73;;;;;;;;;;6270712;22;20028;-84
2023/03/19 05:52:00;;;;;;;19.42;9.95;;;;;;;;;;6270750;22;20020;-82
2023/03/19 05:54:27;;;;;;;19.50;9.30;;;;;;;;;;6269479;22;20515;-82
2023/03/19 05:56:53;;;;;;;21.88;10.68;;;;;;;;;;6270457;22;20078;-84
2023/03/19 05:59:20;;;;;;;22.20;10.57;;;;;;;;;;6270404;22;20493;-83
2023/03/19 06:01:46;;;;;;;23.98;10.32;;;;;;;;;;6269380;22;20016;-82
2023/03/19 06:04:13;;;;;;;21.55;10.38;;;;;;;;;;6267904;22;20024;-84
2023/03/19 06:06:39;;;;;;;20.85;10.10;;;;;;;;;;6267810;22;20032;-83
2023/03/19 06:09:06;;;;;;;22.92;11.05;;;;;;;;;;6267802;22;20549;-84
2023/03/19 06:11:32;;;;;;;19.35;9.82;;;;;;;;;;6270077;22;20066;-83
2023/03/19 06:13:58;;;;;;;22.45;10.45;;;;;;;;;;6270778;22;20095;-85
2023/03/19 06:16:25;;;;;;;20.55;10.50;;;;;;;;;;6272167;22;20030;-84
2023/03/19 06:18:52;;;;;;;27.05;11.00;;;;;;;;;;6271553;22;20517;-83
2023/03/19 06:21:19;;;;;;;21.95;10.15;;;;;;;;;;6270680;22;20535;-82
2023/03/19 06:23:46;;;;;;;23.80;10.57;;;;;;;;;;6267688;22;20095;-80
2023/03/19 06:26:12;;;;;;;22.98;10.40;;;;;;;;;;6272531;22;20090;-81
2023/03/19 06:28:39;;;;;;;23.48;11.07;;;;;;;;;;6272172;22;20060;-82
2023/03/19 06:31:05;;;;;;;21.08;10.77;;;;;;;;;;6270766;22;20163;-83
2023/03/19 06:33:32;;;;;;;20.98;11.45;;;;;;;;;;6267214;22;20028;-82
2023/03/19 06:35:59;;;;;;;24.08;11.35;;;;;;;;;;6266583;22;20500;-82
2023/03/19 06:38:25;;;;;;;28.67;12.25;;;;;;;;;;6266851;22;20032;-82
2023/03/19 06:40:52;;;;;;;28.83;12.07;;;;;;;;;;6269923;22;20026;-82
2023/03/19 06:43:18;;;;;;;28.30;13.43;;;;;;;;;;6266277;22;20035;-83
2023/03/19 06:45:45;;;;;;;32.08;14.07;;;;;;;;;;6269152;22;21235;-83
2023/03/19 06:48:12;;;;;;;35.45;15.15;;;;;;;;;;6268428;22;20020;-82
2023/03/19 06:50:38;;;;;;;44.70;16.88;;;;;;;;;;6267352;22;20027;-83
2023/03/19 06:53:05;;;;;;;49.88;17.50;;;;;;;;;;6267078;22;20028;-84
2023/03/19 06:55:31;;;;;;;39.60;17.10;;;;;;;;;;6269760;22;20024;-83
2023/03/19 06:57:58;;;;;;;44.85;17.60;;;;;;;;;;6269422;22;20028;-82
2023/03/19 07:00:24;;;;;;;46.35;17.67;;;;;;;;;;6268785;22;20024;-82
2023/03/19 07:02:51;;;;;;;40.95;17.50;;;;;;;;;;6268632;22;20036;-84
2023/03/19 07:05:17;;;;;;;43.58;17.08;;;;;;;;;;6268590;22;20028;-82
2023/03/19 07:07:43;;;;;;;39.33;16.33;;;;;;;;;;6269437;22;20024;-85
2023/03/19 07:10:10;;;;;;;34.95;16.08;;;;;;;;;;6241606;22;20556;-84
2023/03/19 07:12:37;;;;;;;37.75;17.38;;;;;;;;;;6242208;22;20035;-82
2023/03/19 07:15:04;;;;;;;38.35;16.13;;;;;;;;;;6267372;22;21141;-84
2023/03/19 07:17:30;;;;;;;34.75;16.08;;;;;;;;;;6241365;22;20078;-85
2023/03/19 07:19:56;;;;;;;37.05;16.50;;;;;;;;;;6268625;22;20019;-84
2023/03/19 07:22:23;;;;;;;34.33;15.43;;;;;;;;;;6267119;22;20035;-86
2023/03/19 07:24:50;;;;;;;39.80;17.52;;;;;;;;;;6266725;22;20008;-85
2023/03/19 07:27:16;;;;;;;39.05;18.30;;;;;;;;;;6269831;22;20414;-86
2023/03/19 07:29:43;;;;;;;41.30;17.08;;;;;;;;;;6266589;22;20024;-82
2023/03/19 07:32:10;;;;;;;43.10;18.42;;;;;;;;;;6266796;22;20087;-83
2023/03/19 07:34:36;;;;;;;41.95;19.15;;;;;;;;;;6265664;22;20031;-83
2023/03/19 07:37:02;;;;;;;47.10;20.25;;;;;;;;;;6267172;22;20095;-84
2023/03/19 07:39:29;;;;;;;45.38;19.92;;;;;;;;;;6267453;22;20028;-82
2023/03/19 07:41:55;;;;;;;47.65;20.08;;;;;;;;;;6267093;22;20024;-85
2023/03/19 07:44:22;;;;;;;49.30;20.40;;;;;;;;;;6265536;22;20032;-83
2023/03/19 07:46:48;;;;;;;40.90;18.75;;;;;;;;;;6269310;22;20034;-82
2023/03/19 07:49:15;;;;;;;45.30;19.80;;;;;;;;;;6247509;22;20812;-82
2023/03/19 07:51:41;;;;;;;43.35;19.25;;;;;;;;;;6267910;22;20025;-85
2023/03/19 07:54:07;;;;;;;45.03;19.35;;;;;;;;;;6266622;22;20810;-87
2023/03/19 07:56:35;;;;;;;47.10;21.60;;;;;;;;;;6267487;22;20585;-84
2023/03/19 07:59:01;;;;;;;43.53;18.75;;;;;;;;;;6239599;22;20032;-83
2023/03/19 08:01:27;;;;;;;42.30;19.38;;;;;;;;;;6267398;22;20031;-84
2023/03/19 08:03:54;;;;;;;40.45;18.23;;;;;;;;;;6267143;22;20151;-82
2023/03/19 08:06:20;;;;;;;40.65;17.88;;;;;;;;;;6267022;22;20026;-84
2023/03/19 08:08:47;;;;;;;38.22;17.30;;;;;;;;;;6267177;22;20020;-86
2023/03/19 08:11:13;;;;;;;40.38;17.73;;;;;;;;;;6267871;22;20099;-84
2023/03/19 08:13:41;;;;;;;41.63;17.52;;;;;;;;;;6267512;22;20043;-87
2023/03/19 08:16:08;;;;;;;38.97;17.00;;;;;;;;;;6268404;22;20016;-82
2023/03/19 08:18:35;;;;;;;37.17;16.58;;;;;;;;;;6241271;22;20028;-84
2023/03/19 08:21:01;;;;;;;38.63;16.50;;;;;;;;;;6268751;22;20024;-86
2023/03/19 08:23:28;;;;;;;39.65;16.60;;;;;;;;;;6239456;22;20055;-85
2023/03/19 08:25:55;;;;;;;34.17;16.25;;;;;;;;;;6268107;22;20060;-82
2023/03/19 08:28:22;;;;;;;38.65;16.90;;;;;;;;;;6241012;22;20035;-87
2023/03/19 08:30:48;;;;;;;35.50;16.60;;;;;;;;;;6240388;22;20028;-86
2023/03/19 08:33:15;;;;;;;38.17;16.25;;;;;;;;;;6239887;22;20104;-84
2023/03/19 08:35:49;;;;;;;35.78;17.35;;;;;;;;;;6267178;22;20074;-84
2023/03/19 08:38:15;;;;;;;42.08;17.65;;;;;;;;;;6267090;22;20461;-82
2023/03/19 08:40:42;;;;;;;36.63;17.08;;;;;;;;;;6268059;22;20030;-85
2023/03/19 08:43:08;;;;;;;40.38;17.95;;;;;;;;;;6265391;22;20319;-83
2023/03/19 08:45:35;;;;;;;35.10;16.52;;;;;;;;;;6268012;22;20064;-85
2023/03/19 08:48:01;;;;;;;41.67;17.35;;;;;;;;;;6241818;22;20032;-83
2023/03/19 08:50:27;;;;;;;42.30;17.92;;;;;;;;;;6266444;22;20035;-84
2023/03/19 08:52:55;;;;;;;36.80;17.15;;;;;;;;;;6266588;22;20024;-83
2023/03/19 08:55:21;;;;;;;34.22;16.23;;;;;;;;;;6265840;22;20099;-87
2023/03/19 08:57:48;;;;;;;33.70;16.88;;;;;;;;;;6267205;22;21042;-85
2023/03/19 09:00:14;;;;;;;34.97;16.27;;;;;;;;;;6269776;22;20091;-83
2023/03/19 09:02:41;;;;;;;36.25;17.80;;;;;;;;;;6268586;22;20086;-82
2023/03/19 09:05:08;;;;;;;35.08;17.70;;;;;;;;;;6266070;22;20034;-82
2023/03/19 09:07:34;;;;;;;41.88;18.20;;;;;;;;;;6243249;22;20059;-83
2023/03/19 09:10:01;;;;;;;36.75;17.23;;;;;;;;;;6268606;22;20042;-83
2023/03/19 09:12:27;;;;;;;41.38;18.17;;;;;;;;;;6268274;22;20070;-83
2023/03/19 09:14:53;;;;;;;41.92;18.48;;;;;;;;;;6239322;22;20024;-84
2023/03/19 09:17:20;;;;;;;44.13;19.33;;;;;;;;;;6241561;22;20028;-84
2023/03/19 09:19:46;;;;;;;38.65;17.85;;;;;;;;;;6267963;22;20745;-83
2023/03/19 09:22:13;;;;;;;39.83;17.50;;;;;;;;;;6265873;22;20024;-84
2023/03/19 09:24:39;;;;;;;36.20;16.55;;;;;;;;;;6265699;22;20107;-84
2023/03/19 09:27:06;;;;;;;38.83;17.42;;;;;;;;;;6241006;22;20467;-84
2023/03/19 09:29:33;;;;;;;38.25;17.70;;;;;;;;;;6268240;22;20489;-81
2023/03/19 09:31:59;;;;;;;31.08;15.75;;;;;;;;;;6267749;22;20551;-84
2023/03/19 09:34:26;;;;;;;39.03;17.42;;;;;;;;;;6265956;22;20103;-84
2023/03/19 09:36:52;;;;;;;35.65;16.58;;;;;;;;;;6266769;22;20056;-82
2023/03/19 09:39:18;;;;;;;38.83;16.70;;;;;;;;;;6268658;22;20046;-84
2023/03/19 09:41:59;;;;;;;35.08;17.73;;;;;;;;;;6267944;22;20035;-81
2023/03/19 09:44:33;;;;;;;36.55;16.02;;;;;;;;;;6267768;22;20098;-83
2023/03/19 09:47:02;;;;;;;37.25;16.63;;;;;;;;;;6269077;22;20024;-82
2023/03/19 09:49:35;;;;;;;39.22;17.75;;;;;;;;;;6271251;22;20028;-82
2023/03/19 09:52:07;;;;;;;35.85;17.65;;;;;;;;;;6269519;22;20028;-84
2023/03/19 09:54:45;;;;;;;39.97;17.38;;;;;;;;;;6267868;22;20016;-84
2023/03/19 09:57:13;;;;;;;37.80;18.33;;;;;;;;;;6241876;22;20024;-81
2023/03/19 09:59:40;;;;;;;40.13;18.25;;;;;;;;;;6241826;22;20031;-83
2023/03/19 10:02:09;;;;;;;36.28;17.02;;;;;;;;;;6269246;22;20024;-82
2023/03/19 10:04:40;;;;;;;33.10;15.40;;;;;;;;;;6267806;22;20127;-81
2023/03/19 10:07:20;;;;;;;33.63;17.30;;;;;;;;;;6269475;22;20032;-83
2023/03/19 10:10:07;;;;;;;34.10;16.92;;;;;;;;;;6267993;22;20024;-81
2023/03/19 10:12:47;;;;;;;41.95;18.65;;;;;;;;;;6195092;22;20028;-82
2023/03/19 10:15:19;;;;;;;37.38;17.95;;;;;;;;;;6268927;22;20024;-83
2023/03/19 10:17:49;;;;;;;37.63;17.92;;;;;;;;;;6267792;22;20019;-83
2023/03/19 10:20:45;;;;;;;38.17;17.67;;;;;;;;;;6268111;22;20024;-81
2023/03/19 10:23:17;;;;;;;36.38;17.75;;;;;;;;;;6184820;22;20026;-80
2023/03/19 10:25:44;;;;;;;38.13;18.15;;;;;;;;;;6268739;22;20460;-82
2023/03/19 10:28:13;;;;;;;40.60;19.02;;;;;;;;;;6269993;22;20024;-81
2023/03/19 10:30:40;;;;;;;40.28;18.10;;;;;;;;;;6244242;22;20055;-81
2023/03/19 10:33:20;;;;;;;34.63;17.60;;;;;;;;;;6244859;22;21273;-83
2023/03/19 10:35:48;;;;;;;37.08;17.35;;;;;;;;;;6271098;22;20119;-82
2023/03/19 10:38:17;;;;;;;38.42;18.20;;;;;;;;;;6271479;22;20032;-82
2023/03/19 10:40:50;;;;;;;39.80;18.15;;;;;;;;;;6270119;22;20618;-83
2023/03/19 10:43:19;;;;;;;35.30;17.80;;;;;;;;;;6269693;22;20098;-81
2023/03/19 10:45:47;;;;;;;35.95;18.70;;;;;;;;;;6269735;22;20024;-83
2023/03/19 10:48:15;;;;;;;34.65;16.77;;;;;;;;;;6270017;22;20496;-82
2023/03/19 10:50:48;;;;;;;33.03;15.98;;;;;;;;;;6243521;22;20093;-82
2023/03/19 10:53:14;;;;;;;31.80;16.38;;;;;;;;;;6241667;22;20493;-82
2023/03/19 10:55:49;;;;;;;34.05;16.05;;;;;;;;;;6268306;22;20024;-82
2023/03/19 10:58:17;;;;;;;32.75;15.52;;;;;;;;;;6270522;22;20052;-82
2023/03/19 11:00:48;;;;;;;32.22;15.73;;;;;;;;;;6270284;22;20131;-81
2023/03/19 11:03:28;;;;;;;37.80;18.27;;;;;;;;;;6270642;22;20086;-83
2023/03/19 11:06:14;;;;;;;35.17;16.88;;;;;;;;;;6269389;22;20893;-81
2023/03/19 11:08:40;;;;;;;30.42;15.10;;;;;;;;;;6270469;22;20059;-84
2023/03/19 11:11:21;;;;;;;33.00;15.63;;;;;;;;;;6270397;22;20522;-83
2023/03/19 11:13:48;;;;;;;28.92;15.15;;;;;;;;;;6270433;22;20024;-83
2023/03/19 11:16:14;;;;;;;31.35;14.30;;;;;;;;;;6271191;22;20020;-82
2023/03/19 11:18:42;;;;;;;32.67;15.40;;;;;;;;;;6271024;22;20826;-82
2023/03/19 11:21:27;;;;;;;31.52;14.95;;;;;;;;;;6272360;22;20027;-83
2023/03/19 11:23:58;;;;;;;35.40;18.65;;;;;;;;;;6269493;22;20078;-83
2023/03/19 11:26:27;;;;;;;34.50;17.52;;;;;;;;;;6269904;22;20029;-82
2023/03/19 11:28:56;;;;;;;37.13;18.35;;;;;;;;;;6270101;22;20024;-83
2023/03/19 11:31:32;;;;;;;38.90;18.38;;;;;;;;;;6268609;22;20028;-81
2023/03/19 11:34:06;;;;;;;43.20;18.55;;;;;;;;;;6269151;22;20028;-83
2023/03/19 11:36:48;;;;;;;33.92;17.20;;;;;;;;;;6271010;22;20024;-83
2023/03/19 11:39:39;;;;;;;40.97;18.33;;;;;;;;;;6244630;22;20020;-82
2023/03/19 11:42:24;;;;;;;38.63;18.00;;;;;;;;;;6243973;22;20028;-83
2023/03/19 11:45:03;;;;;;;37.92;17.15;;;;;;;;;;6270018;22;20357;-81
2023/03/19 11:47:39;;;;;;;34.78;16.85;;;;;;;;;;6272953;22;20404;-82
2023/03/19 11:50:18;;;;;;;31.45;15.80;;;;;;;;;;6270473;22;20020;-81
2023/03/19 11:52:53;;;;;;;32.65;14.82;;;;;;;;;;6244420;22;20918;-83
2023/03/19 11:55:22;;;;;;;30.58;14.75;;;;;;;;;;6270709;22;20035;-83
2023/03/19 11:58:03;;;;;;;34.00;14.63;;;;;;;;;;6272005;22;20024;-84
2023/03/19 12:00:35;;;;;;;32.22;14.82;;;;;;;;;;6248700;22;20082;-81
2023/03/19 12:03:01;;;;;;;28.70;14.32;;;;;;;;;;6247823;22;20056;-83
2023/03/19 12:05:48;;;;;;;29.58;14.88;;;;;;;;;;6248894;22;20020;-82
2023/03/19 12:08:35;;;;;;;33.47;14.43;;;;;;;;;;6274256;22;20027;-83
2023/03/19 12:11:11;;;;;;;33.20;14.85;;;;;;;;;;6273498;22;21248;-83
2023/03/19 12:13:40;;;;;;;34.65;13.57;;;;;;;;;;6271200;22;20091;-84
2023/03/19 12:16:07;;;;;;;27.90;13.65;;;;;;;;;;6244010;22;20028;-82
2023/03/19 12:18:33;;;;;;;26.98;11.90;;;;;;;;;;6272201;22;20095;-82
2023/03/19 12:21:00;;;;;;;28.25;12.85;;;;;;;;;;6271467;22;20667;-82
2023/03/19 12:23:31;;;;;;;28.77;13.38;;;;;;;;;;6269688;22;20561;-83
2023/03/19 12:26:05;;;;;;;29.70;14.77;;;;;;;;;;6272132;22;20028;-83
2023/03/19 12:28:40;;;;;;;31.88;14.40;;;;;;;;;;6244624;22;20025;-80
2023/03/19 12:31:06;;;;;;;32.75;14.60;;;;;;;;;;6274398;22;20881;-80
2023/03/19 12:33:42;;;;;;;30.63;13.88;;;;;;;;;;6269673;22;20051;-82
2023/03/19 12:36:11;;;;;;;30.77;14.95;;;;;;;;;;6269980;22;20107;-81
2023/03/19 12:38:42;;;;;;;26.95;12.32;;;;;;;;;;6270213;22;20079;-82
2023/03/19 12:41:29;;;;;;;22.85;10.88;;;;;;;;;;6273132;22;20052;-82
2023/03/19 12:43:55;;;;;;;28.08;11.65;;;;;;;;;;6267203;22;20079;-83
2023/03/19 12:46:25;;;;;;;24.80;11.40;;;;;;;;;;6269472;22;20028;-86
2023/03/19 12:48:55;;;;;;;27.42;12.13;;;;;;;;;;6241318;22;20059;-82
2023/03/19 12:51:25;;;;;;;28.60;13.40;;;;;;;;;;6267871;22;20044;-83
2023/03/19 12:54:11;;;;;;;26.60;11.60;;;;;;;;;;6239445;22;20078;-81
2023/03/19 12:56:38;;;;;;;28.17;11.45;;;;;;;;;;6245277;22;20388;-86
2023/03/19 12:59:13;;;;;;;22.33;10.43;;;;;;;;;;6271576;22;20414;-85
2023/03/19 13:01:59;;;;;;;25.42;10.73;;;;;;;;;;6272748;22;20032;-87
2023/03/19 13:04:29;;;;;;;23.60;10.77;;;;;;;;;;6273451;22;20024;-83
2023/03/19 13:07:06;;;;;;;25.75;10.75;;;;;;;;;;6275191;22;20025;-83
2023/03/19 13:09:51;;;;;;;25.38;10.00;;;;;;;;;;6248494;22;20024;-85
2023/03/19 13:12:26;;;;;;;23.95;10.40;;;;;;;;;;6246631;22;20050;-83
2023/03/19 13:14:59;;;;;;;23.10;10.50;;;;;;;;;;6272643;22;20597;-84
2023/03/19 13:17:30;;;;;;;23.88;9.85;;;;;;;;;;6269570;22;20028;-86
2023/03/19 13:19:57;;;;;;;22.10;9.43;;;;;;;;;;6269413;22;20449;-84
2023/03/19 13:22:26;;;;;;;25.17;10.50;;;;;;;;;;6240609;22;20454;-87
2023/03/19 13:24:53;;;;;;;26.60;9.73;;;;;;;;;;6269563;22;20031;-83
2023/03/19 13:27:25;;;;;;;25.23;10.20;;;;;;;;;;6270218;22;20028;-86
2023/03/19 13:29:54;;;;;;;24.75;10.68;;;;;;;;;;6268734;22;20467;-84
2023/03/19 13:32:35;;;;;;;21.40;10.57;;;;;;;;;;6269791;22;20469;-85
2023/03/19 13:35:01;;;;;;;;;;;;;;;;;;6271020;22;20035;-84
2023/03/19 13:37:28;;;;;;;23.25;10.05;;;;;;;;;;6272371;22;45374;-84
2023/03/19 13:39:54;;;;;;;23.35;9.50;;;;;;;;;;6248677;22;20673;-84
2023/03/19 13:42:37;;;;;;;28.23;13.00;;;;;;;;;;6248780;22;20031;-85
2023/03/19 13:45:25;;;;;;;24.10;10.98;;;;;;;;;;6257192;22;20503;-85
2023/03/19 13:47:51;;;;;;;20.88;10.05;;;;;;;;;;6260653;22;20417;-85
2023/03/19 13:50:18;;;;;;;22.05;9.48;;;;;;;;;;6276278;22;20071;-84
2023/03/19 13:52:44;;;;;;;23.55;9.38;;;;;;;;;;6276423;22;20032;-85
2023/03/19 13:55:20;;;;;;;23.92;9.73;;;;;;;;;;6271114;22;20020;-86
2023/03/19 13:58:00;;;;;;;22.60;10.27;;;;;;;;;;6274860;22;20084;-85
2023/03/19 14:00:45;;;;;;;25.90;11.13;;;;;;;;;;6271941;22;20034;-84
2023/03/19 14:03:18;;;;;;;24.75;10.73;;;;;;;;;;6271318;22;20020;-87
2023/03/19 14:05:46;;;;;;;28.08;13.27;;;;;;;;;;6272353;22;20034;-84
2023/03/19 14:08:23;;;;;;;21.75;11.07;;;;;;;;;;6272577;22;20028;-84
2023/03/19 14:10:57;;;;;;;22.40;10.98;;;;;;;;;;6272471;22;20055;-86
2023/03/19 14:13:24;;;;;;;19.10;9.15;;;;;;;;;;6269882;22;20500;-85
2023/03/19 14:15:50;;;;;;;20.08;9.07;;;;;;;;;;6272332;22;20030;-85
2023/03/19 14:18:19;;;;;;;21.55;10.52;;;;;;;;;;6276934;22;20018;-85
2023/03/19 14:20:46;;;;;;;23.30;10.85;;;;;;;;;;6275603;22;20118;-83
2023/03/19 14:23:20;;;;;;;21.05;9.52;;;;;;;;;;6275564;22;20068;-84
2023/03/19 14:26:04;;;;;;;21.17;9.85;;;;;;;;;;6276158;22;20482;-85
2023/03/19 14:28:50;;;;;;;29.05;13.00;;;;;;;;;;6274968;22;20020;-85
2023/03/19 14:31:29;;;;;;;23.42;10.57;;;;;;;;;;6273693;22;20024;-85
2023/03/19 14:33:55;;;;;;;21.77;9.70;;;;;;;;;;6274684;22;20027;-84
2023/03/19 14:36:22;;;;;;;19.50;9.85;;;;;;;;;;6271762;22;20429;-84
2023/03/19 14:38:55;;;;;;;20.50;9.43;;;;;;;;;;6272542;22;20052;-84
2023/03/19 14:41:24;;;;;;;20.88;10.07;;;;;;;;;;6274787;22;20019;-85
2023/03/19 14:44:09;;;;;;;19.35;9.98;;;;;;;;;;6271271;22;20078;-84
2023/03/19 14:46:54;;;;;;;20.70;9.23;;;;;;;;;;6272276;22;20560;-84
2023/03/19 14:49:29;;;;;;;25.13;10.23;;;;;;;;;;6271275;22;20031;-85